createdAt,value
2018-09-18T00:00:21.676Z,18.90
2018-09-18T00:05:24.779Z,18.80
2018-09-18T00:10:27.879Z,18.80
2018-09-18T00:15:30.980Z,18.80
2018-09-18T00:20:34.067Z,18.80
2018-09-18T00:25:37.618Z,18.70
2018-09-18T00:30:40.727Z,18.70
2018-09-18T00:35:43.819Z,18.70
2018-09-18T00:40:46.910Z,18.70
2018-09-18T00:45:50.030Z,18.70
2018-09-18T00:50:53.163Z,18.60
2018-09-18T00:55:56.283Z,18.60
2018-09-18T01:00:59.387Z,18.60
2018-09-18T01:06:02.471Z,18.50
2018-09-18T01:11:05.807Z,18.50
2018-09-18T01:16:08.910Z,18.50
2018-09-18T01:21:12.386Z,18.50
2018-09-18T01:26:15.481Z,18.40
2018-09-18T01:31:18.593Z,18.40
2018-09-18T01:36:21.682Z,18.30
2018-09-18T01:41:24.792Z,18.40
2018-09-18T01:46:27.879Z,18.30
2018-09-18T01:51:30.963Z,18.30
2018-09-18T01:56:34.059Z,18.30
2018-09-18T02:01:37.172Z,18.20
2018-09-18T02:06:40.267Z,18.20
2018-09-18T02:11:43.347Z,18.10
2018-09-18T02:16:46.462Z,18.00
2018-09-18T02:21:49.580Z,18.00
2018-09-18T02:26:52.688Z,18.00
2018-09-18T02:31:55.786Z,17.90
2018-09-18T02:36:58.916Z,17.80
2018-09-18T02:42:02.018Z,17.80
2018-09-18T02:47:05.114Z,17.70
2018-09-18T02:52:08.231Z,17.70
2018-09-18T02:57:11.382Z,17.70
2018-09-18T03:02:14.528Z,17.60
2018-09-18T03:07:17.666Z,17.60
2018-09-18T03:12:20.787Z,17.60
2018-09-18T03:17:23.894Z,17.50
2018-09-18T03:22:27.020Z,17.50
2018-09-18T03:27:30.141Z,17.40
2018-09-18T03:32:33.316Z,17.40
2018-09-18T03:37:36.438Z,17.30
2018-09-18T03:42:39.543Z,17.30
2018-09-18T03:47:42.659Z,17.30
2018-09-18T03:52:45.771Z,17.20
2018-09-18T03:57:48.867Z,17.20
2018-09-18T04:02:52.146Z,17.20
2018-09-18T04:07:55.231Z,17.10
2018-09-18T04:12:58.335Z,17.10
2018-09-18T04:18:01.529Z,17.00
2018-09-18T04:23:04.644Z,17.10
2018-09-18T04:28:07.747Z,17.00
2018-09-18T04:33:10.866Z,17.00
2018-09-18T04:38:13.979Z,17.00
2018-09-18T04:43:17.047Z,16.90
2018-09-18T04:48:20.154Z,16.90
2018-09-18T04:53:23.256Z,16.90
2018-09-18T04:58:26.356Z,16.90
2018-09-18T05:03:29.919Z,16.90
2018-09-18T05:08:33.038Z,16.80
2018-09-18T05:13:36.135Z,16.80
2018-09-18T05:18:39.234Z,16.80
2018-09-18T05:23:42.350Z,16.70
2018-09-18T05:28:45.437Z,16.70
2018-09-18T05:33:48.619Z,16.80
2018-09-18T05:38:51.682Z,16.80
2018-09-18T05:43:54.802Z,16.80
2018-09-18T05:48:57.912Z,16.70
2018-09-18T05:54:01.018Z,16.80
2018-09-18T05:59:04.123Z,16.80
2018-09-18T06:04:07.231Z,16.80
2018-09-18T06:09:11.438Z,16.70
2018-09-18T06:14:21.352Z,16.80
2018-09-18T06:19:24.440Z,16.80
2018-09-18T06:24:27.599Z,16.80
2018-09-18T06:29:30.712Z,16.80
2018-09-18T06:34:33.876Z,16.80
2018-09-18T06:39:37.003Z,16.90
2018-09-18T06:44:40.090Z,16.90
2018-09-18T06:49:43.544Z,17.00
2018-09-18T06:54:46.679Z,17.10
2018-09-18T06:59:49.783Z,17.30
2018-09-18T07:04:52.918Z,17.50
2018-09-18T07:09:56.023Z,17.60
2018-09-18T07:14:59.104Z,17.80
2018-09-18T07:20:02.261Z,17.90
2018-09-18T07:25:05.370Z,18.20
2018-09-18T07:30:08.970Z,18.40
2018-09-18T07:35:12.059Z,18.50
2018-09-18T07:40:15.192Z,18.60
2018-09-18T07:45:18.451Z,18.80
2018-09-18T07:50:21.562Z,19.00
2018-09-18T07:55:25.462Z,19.20
2018-09-18T08:00:28.604Z,19.40
2018-09-18T08:05:31.708Z,19.60
2018-09-18T08:10:34.794Z,19.70
2018-09-18T08:15:37.919Z,19.90
2018-09-18T08:20:41.094Z,20.10
2018-09-18T08:25:44.259Z,20.30
2018-09-18T08:30:47.301Z,20.50
2018-09-18T08:35:50.488Z,20.80
2018-09-18T08:40:53.644Z,21.10
2018-09-18T08:45:56.774Z,21.40
2018-09-18T08:51:01.183Z,21.50
2018-09-18T08:56:04.311Z,21.70
2018-09-18T09:01:07.472Z,22.00
2018-09-18T09:06:10.583Z,22.30
2018-09-18T09:11:13.656Z,22.50
2018-09-18T09:16:16.764Z,22.80
2018-09-18T09:21:19.988Z,23.00
2018-09-18T09:26:23.031Z,23.30
2018-09-18T09:31:26.205Z,23.60
2018-09-18T09:36:29.331Z,23.90
2018-09-18T09:41:32.424Z,24.10
2018-09-18T09:46:35.655Z,24.30
2018-09-18T09:51:38.784Z,24.40
2018-09-18T09:56:41.917Z,24.80
2018-09-18T10:01:55.331Z,25.10
2018-09-18T10:06:58.439Z,25.40
2018-09-18T10:12:01.559Z,25.60
2018-09-18T10:17:04.745Z,25.80
2018-09-18T10:22:07.837Z,26.00
2018-09-18T10:27:10.943Z,26.20
2018-09-18T10:32:14.065Z,26.40
2018-09-18T10:37:17.223Z,26.60
2018-09-18T10:42:20.399Z,26.80
2018-09-18T10:47:23.499Z,26.90
2018-09-18T10:52:26.590Z,27.10
2018-09-18T10:57:29.686Z,27.20
2018-09-18T11:02:32.820Z,27.40
2018-09-18T11:07:36.769Z,27.50
2018-09-18T11:12:39.774Z,27.70
2018-09-18T11:17:42.961Z,27.80
2018-09-18T11:22:46.005Z,28.00
2018-09-18T11:27:49.116Z,28.10
2018-09-18T11:32:52.281Z,28.30
2018-09-18T11:37:55.309Z,28.40
2018-09-18T11:42:58.450Z,28.60
2018-09-18T11:48:01.555Z,28.70
2018-09-18T11:53:04.683Z,28.80
2018-09-18T11:58:07.796Z,28.90
2018-09-18T12:03:10.902Z,29.00
2018-09-18T12:08:14.007Z,29.20
2018-09-18T12:13:17.103Z,29.30
2018-09-18T12:18:20.209Z,29.40
2018-09-18T12:23:23.331Z,29.50
2018-09-18T12:28:26.487Z,29.60
2018-09-18T12:33:29.541Z,29.70
2018-09-18T12:38:32.664Z,29.80
2018-09-18T12:43:35.813Z,29.80
2018-09-18T12:48:38.984Z,29.90
2018-09-18T12:53:42.092Z,29.90
2018-09-18T12:58:45.144Z,30.00
2018-09-18T13:03:48.234Z,30.00
2018-09-18T13:08:51.330Z,30.10
2018-09-18T13:13:54.508Z,30.00
2018-09-18T13:18:57.611Z,30.10
2018-09-18T13:24:00.747Z,30.20
2018-09-18T13:29:03.843Z,30.30
2018-09-18T13:34:07.235Z,30.40
2018-09-18T13:39:10.420Z,30.40
2018-09-18T13:44:13.523Z,30.50
2018-09-18T13:49:16.632Z,30.80
2018-09-18T13:54:19.751Z,30.90
2018-09-18T13:59:22.851Z,30.80
2018-09-18T14:04:26.096Z,30.80
2018-09-18T14:09:29.160Z,30.90
2018-09-18T14:14:32.200Z,30.90
2018-09-18T14:19:35.308Z,31.00
2018-09-18T14:24:38.437Z,31.00
2018-09-18T14:29:41.572Z,30.90
2018-09-18T14:34:44.723Z,30.90
2018-09-18T14:39:47.824Z,31.00
2018-09-18T14:44:50.943Z,31.00
2018-09-18T14:49:54.092Z,31.00
2018-09-18T14:54:57.192Z,31.00
2018-09-18T15:00:00.344Z,31.00
2018-09-18T15:05:03.424Z,30.90
2018-09-18T15:10:11.520Z,30.90
2018-09-18T15:15:14.630Z,30.90
2018-09-18T15:20:17.778Z,30.90
2018-09-18T15:25:20.908Z,30.80
2018-09-18T15:30:24.034Z,30.80
2018-09-18T15:35:27.115Z,30.80
2018-09-18T15:40:30.325Z,30.70
2018-09-18T15:45:33.580Z,30.60
2018-09-18T15:50:36.736Z,30.50
2018-09-18T15:55:39.871Z,30.40
2018-09-18T16:00:43.027Z,30.30
2018-09-18T16:05:46.099Z,30.30
2018-09-18T16:10:49.242Z,30.10
2018-09-18T16:15:52.355Z,30.10
2018-09-18T16:20:55.469Z,30.00
2018-09-18T16:25:58.584Z,29.90
2018-09-18T16:31:01.684Z,29.80
2018-09-18T16:36:04.783Z,29.80
2018-09-18T16:41:07.890Z,29.70
2018-09-18T16:46:10.970Z,29.60
2018-09-18T16:51:14.062Z,29.50
2018-09-18T16:56:17.193Z,29.40
2018-09-18T17:01:20.294Z,29.40
2018-09-18T17:06:23.470Z,29.20
2018-09-18T17:11:26.536Z,29.10
2018-09-18T17:16:29.650Z,29.10
2018-09-18T17:21:32.715Z,29.00
2018-09-18T17:26:35.824Z,28.80
2018-09-18T17:31:38.971Z,28.70
2018-09-18T17:36:42.522Z,28.60
2018-09-18T17:41:45.703Z,28.50
2018-09-18T17:46:48.811Z,28.40
2018-09-18T17:51:52.366Z,28.30
2018-09-18T17:56:55.741Z,28.10
2018-09-18T18:01:58.823Z,28.00
2018-09-18T18:07:01.922Z,27.90
2018-09-18T18:12:05.037Z,27.80
2018-09-18T18:17:08.219Z,27.60
2018-09-18T18:22:11.337Z,27.50
2018-09-18T18:27:14.512Z,27.40
2018-09-18T18:32:17.643Z,27.30
2018-09-18T18:37:20.771Z,27.20
2018-09-18T18:42:23.893Z,27.00
2018-09-18T18:47:27.072Z,26.90
2018-09-18T18:52:30.173Z,26.80
2018-09-18T18:57:33.290Z,26.70
2018-09-18T19:02:36.383Z,26.60
2018-09-18T19:07:39.530Z,26.50
2018-09-18T19:12:42.635Z,26.30
2018-09-18T19:17:45.731Z,26.10
2018-09-18T19:22:48.847Z,26.00
2018-09-18T19:27:51.975Z,25.90
2018-09-18T19:32:55.198Z,25.80
2018-09-18T19:37:58.275Z,25.70
2018-09-18T19:43:01.460Z,25.60
2018-09-18T19:48:04.527Z,25.60
2018-09-18T19:53:07.654Z,25.50
2018-09-18T19:58:10.776Z,25.30
2018-09-18T20:03:13.949Z,25.20
2018-09-18T20:08:17.046Z,25.00
2018-09-18T20:13:20.103Z,25.00
2018-09-18T20:18:23.207Z,24.90
2018-09-18T20:23:26.294Z,24.80
2018-09-18T20:28:29.590Z,24.80
2018-09-18T20:33:32.679Z,24.70
2018-09-18T20:38:35.924Z,24.60
2018-09-18T20:43:39.045Z,24.60
2018-09-18T20:48:42.136Z,24.50
2018-09-18T20:53:45.234Z,24.40
2018-09-18T20:58:48.538Z,24.40
2018-09-18T21:03:51.679Z,24.20
2018-09-18T21:08:54.795Z,24.10
2018-09-18T21:13:57.927Z,24.10
2018-09-18T21:19:01.049Z,24.00
2018-09-18T21:24:04.143Z,23.90
2018-09-18T21:29:07.217Z,23.90
2018-09-18T21:34:10.349Z,23.80
2018-09-18T21:39:13.468Z,23.70
2018-09-18T21:44:16.593Z,23.60
2018-09-18T21:49:19.709Z,23.60
2018-09-18T21:54:22.886Z,23.40
2018-09-18T21:59:26.005Z,23.30
2018-09-18T22:04:29.115Z,23.30
2018-09-18T22:09:32.220Z,23.20
2018-09-18T22:14:35.337Z,23.10
2018-09-18T22:19:38.453Z,23.00
2018-09-18T22:24:41.579Z,22.90
2018-09-18T22:29:44.679Z,22.90
2018-09-18T22:34:47.797Z,22.80
2018-09-18T22:39:50.893Z,22.80
2018-09-18T22:44:54.180Z,22.70
2018-09-18T22:49:57.363Z,22.60
2018-09-18T22:55:00.539Z,22.60
2018-09-18T23:00:03.867Z,22.50
2018-09-18T23:05:07.234Z,22.50
2018-09-18T23:10:10.445Z,22.40
2018-09-18T23:15:13.551Z,22.40
2018-09-18T23:20:16.667Z,22.30
2018-09-18T23:25:19.791Z,22.20
2018-09-18T23:30:22.929Z,22.20
2018-09-18T23:35:26.031Z,22.10
2018-09-18T23:40:29.129Z,22.00
2018-09-18T23:45:32.255Z,22.00
2018-09-18T23:50:35.341Z,21.90
2018-09-18T23:55:38.452Z,21.80
